sensor_id;sensor_type;location;lat;lon;timestamp;temperature;humidity
37560;DHT22;23398;50.928;7.084;2023-01-28T00:01:07;7.30;68.10
37560;DHT22;23398;50.928;7.084;2023-01-28T00:03:32;7.20;67.90
37560;DHT22;23398;50.928;7.084;2023-01-28T00:06:02;7.20;68.60
37560;DHT22;23398;50.928;7.084;2023-01-28T00:08:28;7.10;67.80
37560;DHT22;23398;50.928;7.084;2023-01-28T00:10:58;7.00;67.80
37560;DHT22;23398;50.928;7.084;2023-01-28T00:13:24;6.90;67.70
37560;DHT22;23398;50.928;7.084;2023-01-28T00:15:55;6.70;67.50
37560;DHT22;23398;50.928;7.084;2023-01-28T00:18:21;6.60;67.60
37560;DHT22;23398;50.928;7.084;2023-01-28T00:21:00;6.50;67.60
37560;DHT22;23398;50.928;7.084;2023-01-28T00:23:27;6.40;67.90
37560;DHT22;23398;50.928;7.084;2023-01-28T00:25:53;6.30;67.90
37560;DHT22;23398;50.928;7.084;2023-01-28T00:28:20;6.20;68.10
37560;DHT22;23398;50.928;7.084;2023-01-28T00:30:46;6.00;68.30
37560;DHT22;23398;50.928;7.084;2023-01-28T00:33:12;5.90;68.40
37560;DHT22;23398;50.928;7.084;2023-01-28T00:35:37;5.80;68.60
37560;DHT22;23398;50.928;7.084;2023-01-28T00:38:03;5.70;68.70
37560;DHT22;23398;50.928;7.084;2023-01-28T00:40:29;5.60;68.80
37560;DHT22;23398;50.928;7.084;2023-01-28T00:42:55;5.50;68.80
37560;DHT22;23398;50.928;7.084;2023-01-28T00:45:20;5.40;68.70
37560;DHT22;23398;50.928;7.084;2023-01-28T00:47:46;5.30;68.70
37560;DHT22;23398;50.928;7.084;2023-01-28T00:50:13;5.20;68.90
37560;DHT22;23398;50.928;7.084;2023-01-28T00:52:39;5.10;69.10
37560;DHT22;23398;50.928;7.084;2023-01-28T00:55:05;4.90;69.10
37560;DHT22;23398;50.928;7.084;2023-01-28T00:57:30;4.90;69.30
37560;DHT22;23398;50.928;7.084;2023-01-28T00:59:56;4.80;69.50
37560;DHT22;23398;50.928;7.084;2023-01-28T01:02:22;4.60;69.50
37560;DHT22;23398;50.928;7.084;2023-01-28T01:04:47;4.50;69.60
37560;DHT22;23398;50.928;7.084;2023-01-28T01:07:29;4.40;69.70
37560;DHT22;23398;50.928;7.084;2023-01-28T01:10:07;4.30;70.00
37560;DHT22;23398;50.928;7.084;2023-01-28T01:12:33;4.30;70.00
37560;DHT22;23398;50.928;7.084;2023-01-28T01:14:59;4.10;70.20
37560;DHT22;23398;50.928;7.084;2023-01-28T01:17:24;4.00;70.60
37560;DHT22;23398;50.928;7.084;2023-01-28T01:19:50;3.90;71.10
37560;DHT22;23398;50.928;7.084;2023-01-28T01:22:15;3.90;71.60
37560;DHT22;23398;50.928;7.084;2023-01-28T01:24:41;3.80;72.00
37560;DHT22;23398;50.928;7.084;2023-01-28T01:27:06;3.80;72.30
37560;DHT22;23398;50.928;7.084;2023-01-28T01:29:32;3.70;72.50
37560;DHT22;23398;50.928;7.084;2023-01-28T01:31:58;3.70;72.80
37560;DHT22;23398;50.928;7.084;2023-01-28T01:34:24;3.70;73.10
37560;DHT22;23398;50.928;7.084;2023-01-28T01:36:50;3.60;73.20
37560;DHT22;23398;50.928;7.084;2023-01-28T01:39:15;3.60;73.40
37560;DHT22;23398;50.928;7.084;2023-01-28T01:41:41;3.60;73.60
37560;DHT22;23398;50.928;7.084;2023-01-28T01:47:12;3.50;74.40
37560;DHT22;23398;50.928;7.084;2023-01-28T01:49:38;3.40;74.00
37560;DHT22;23398;50.928;7.084;2023-01-28T01:52:09;3.40;74.20
37560;DHT22;23398;50.928;7.084;2023-01-28T01:54:39;3.30;74.50
37560;DHT22;23398;50.928;7.084;2023-01-28T01:57:09;3.30;74.50
37560;DHT22;23398;50.928;7.084;2023-01-28T01:59:36;3.30;74.50
37560;DHT22;23398;50.928;7.084;2023-01-28T02:02:04;3.30;74.40
37560;DHT22;23398;50.928;7.084;2023-01-28T02:04:35;3.20;74.30
37560;DHT22;23398;50.928;7.084;2023-01-28T02:07:03;3.20;74.50
37560;DHT22;23398;50.928;7.084;2023-01-28T02:09:32;3.10;74.70
37560;DHT22;23398;50.928;7.084;2023-01-28T02:12:03;3.10;75.10
37560;DHT22;23398;50.928;7.084;2023-01-28T02:14:34;3.00;75.40
37560;DHT22;23398;50.928;7.084;2023-01-28T02:17:01;3.10;75.80
37560;DHT22;23398;50.928;7.084;2023-01-28T02:19:35;3.00;75.90
37560;DHT22;23398;50.928;7.084;2023-01-28T02:25:39;3.00;77.00
37560;DHT22;23398;50.928;7.084;2023-01-28T02:31:07;2.90;76.70
37560;DHT22;23398;50.928;7.084;2023-01-28T02:33:42;2.80;76.20
37560;DHT22;23398;50.928;7.084;2023-01-28T02:38:45;2.80;76.70
37560;DHT22;23398;50.928;7.084;2023-01-28T02:41:34;2.70;77.20
37560;DHT22;23398;50.928;7.084;2023-01-28T02:44:01;2.70;77.70
37560;DHT22;23398;50.928;7.084;2023-01-28T02:49:20;2.70;76.90
37560;DHT22;23398;50.928;7.084;2023-01-28T02:52:18;2.60;76.80
37560;DHT22;23398;50.928;7.084;2023-01-28T03:06:24;2.40;76.50
37560;DHT22;23398;50.928;7.084;2023-01-28T03:08:57;2.40;77.30
37560;DHT22;23398;50.928;7.084;2023-01-28T03:14:52;2.30;77.70
37560;DHT22;23398;50.928;7.084;2023-01-28T03:17:48;2.30;78.10
37560;DHT22;23398;50.928;7.084;2023-01-28T03:20:48;2.30;78.70
37560;DHT22;23398;50.928;7.084;2023-01-28T03:24:07;2.20;78.90
37560;DHT22;23398;50.928;7.084;2023-01-28T03:27:17;2.20;79.60
37560;DHT22;23398;50.928;7.084;2023-01-28T03:30:26;2.20;79.50
37560;DHT22;23398;50.928;7.084;2023-01-28T03:33:11;2.20;79.70
37560;DHT22;23398;50.928;7.084;2023-01-28T03:35:57;2.20;79.10
37560;DHT22;23398;50.928;7.084;2023-01-28T03:38:42;2.20;79.30
37560;DHT22;23398;50.928;7.084;2023-01-28T03:41:19;2.20;79.50
37560;DHT22;23398;50.928;7.084;2023-01-28T03:43:45;2.20;80.20
37560;DHT22;23398;50.928;7.084;2023-01-28T03:46:11;2.20;79.90
37560;DHT22;23398;50.928;7.084;2023-01-28T03:48:36;2.20;80.10
37560;DHT22;23398;50.928;7.084;2023-01-28T03:51:02;2.20;80.10
37560;DHT22;23398;50.928;7.084;2023-01-28T03:53:28;2.20;80.30
37560;DHT22;23398;50.928;7.084;2023-01-28T03:55:54;2.20;80.40
37560;DHT22;23398;50.928;7.084;2023-01-28T03:58:21;2.20;80.40
37560;DHT22;23398;50.928;7.084;2023-01-28T04:00:51;2.20;80.40
37560;DHT22;23398;50.928;7.084;2023-01-28T04:03:19;2.20;80.30
37560;DHT22;23398;50.928;7.084;2023-01-28T04:06:07;2.10;80.40
37560;DHT22;23398;50.928;7.084;2023-01-28T04:08:33;2.20;81.50
37560;DHT22;23398;50.928;7.084;2023-01-28T04:10:59;2.20;81.00
37560;DHT22;23398;50.928;7.084;2023-01-28T04:13:40;2.20;81.10
37560;DHT22;23398;50.928;7.084;2023-01-28T04:16:06;2.20;81.10
37560;DHT22;23398;50.928;7.084;2023-01-28T04:18:33;2.20;81.20
37560;DHT22;23398;50.928;7.084;2023-01-28T04:20:58;2.20;81.20
37560;DHT22;23398;50.928;7.084;2023-01-28T04:23:24;2.20;81.10
37560;DHT22;23398;50.928;7.084;2023-01-28T04:25:50;2.20;80.90
37560;DHT22;23398;50.928;7.084;2023-01-28T04:28:15;2.20;80.80
37560;DHT22;23398;50.928;7.084;2023-01-28T04:30:41;2.10;80.60
37560;DHT22;23398;50.928;7.084;2023-01-28T04:33:06;2.10;80.70
37560;DHT22;23398;50.928;7.084;2023-01-28T04:35:32;2.10;80.70
37560;DHT22;23398;50.928;7.084;2023-01-28T04:37:58;2.10;80.80
37560;DHT22;23398;50.928;7.084;2023-01-28T04:40:23;2.00;80.70
37560;DHT22;23398;50.928;7.084;2023-01-28T04:42:53;2.00;80.70
37560;DHT22;23398;50.928;7.084;2023-01-28T04:45:18;2.00;80.80
37560;DHT22;23398;50.928;7.084;2023-01-28T04:47:44;1.90;80.50
37560;DHT22;23398;50.928;7.084;2023-01-28T04:50:09;1.90;80.60
37560;DHT22;23398;50.928;7.084;2023-01-28T04:52:35;1.90;81.00
37560;DHT22;23398;50.928;7.084;2023-01-28T04:55:01;1.90;81.40
37560;DHT22;23398;50.928;7.084;2023-01-28T04:57:27;1.90;81.90
37560;DHT22;23398;50.928;7.084;2023-01-28T04:59:53;1.90;82.00
37560;DHT22;23398;50.928;7.084;2023-01-28T05:02:18;1.90;82.10
37560;DHT22;23398;50.928;7.084;2023-01-28T05:04:44;1.90;82.10
37560;DHT22;23398;50.928;7.084;2023-01-28T05:07:10;1.90;82.20
37560;DHT22;23398;50.928;7.084;2023-01-28T05:09:35;1.90;82.50
37560;DHT22;23398;50.928;7.084;2023-01-28T05:12:01;1.90;82.80
37560;DHT22;23398;50.928;7.084;2023-01-28T05:14:27;1.90;83.20
37560;DHT22;23398;50.928;7.084;2023-01-28T05:16:53;2.00;83.70
37560;DHT22;23398;50.928;7.084;2023-01-28T05:19:18;2.00;84.30
37560;DHT22;23398;50.928;7.084;2023-01-28T05:21:44;2.10;85.00
37560;DHT22;23398;50.928;7.084;2023-01-28T05:24:09;2.20;85.70
37560;DHT22;23398;50.928;7.084;2023-01-28T05:26:35;2.30;86.30
37560;DHT22;23398;50.928;7.084;2023-01-28T05:29:02;2.40;86.80
37560;DHT22;23398;50.928;7.084;2023-01-28T05:31:28;2.50;87.30
37560;DHT22;23398;50.928;7.084;2023-01-28T05:33:53;2.60;87.60
37560;DHT22;23398;50.928;7.084;2023-01-28T05:36:19;2.70;87.70
37560;DHT22;23398;50.928;7.084;2023-01-28T05:38:45;2.80;87.80
37560;DHT22;23398;50.928;7.084;2023-01-28T05:41:10;3.00;88.00
37560;DHT22;23398;50.928;7.084;2023-01-28T05:43:36;3.10;87.70
37560;DHT22;23398;50.928;7.084;2023-01-28T05:46:02;3.20;87.40
37560;DHT22;23398;50.928;7.084;2023-01-28T05:48:27;3.30;87.10
37560;DHT22;23398;50.928;7.084;2023-01-28T05:50:53;3.40;86.80
37560;DHT22;23398;50.928;7.084;2023-01-28T05:53:18;3.50;86.30
37560;DHT22;23398;50.928;7.084;2023-01-28T05:55:50;3.60;85.90
37560;DHT22;23398;50.928;7.084;2023-01-28T05:58:16;3.70;85.70
37560;DHT22;23398;50.928;7.084;2023-01-28T06:00:41;3.70;84.90
37560;DHT22;23398;50.928;7.084;2023-01-28T06:03:07;3.80;84.30
37560;DHT22;23398;50.928;7.084;2023-01-28T06:05:33;3.90;83.80
37560;DHT22;23398;50.928;7.084;2023-01-28T06:07:58;3.90;83.30
37560;DHT22;23398;50.928;7.084;2023-01-28T06:10:24;4.00;83.00
37560;DHT22;23398;50.928;7.084;2023-01-28T06:12:50;4.10;83.00
37560;DHT22;23398;50.928;7.084;2023-01-28T06:15:15;4.20;83.10
37560;DHT22;23398;50.928;7.084;2023-01-28T06:17:41;4.30;82.60
37560;DHT22;23398;50.928;7.084;2023-01-28T06:20:07;4.30;82.10
37560;DHT22;23398;50.928;7.084;2023-01-28T06:22:33;4.40;81.90
37560;DHT22;23398;50.928;7.084;2023-01-28T06:24:59;4.40;81.50
37560;DHT22;23398;50.928;7.084;2023-01-28T06:27:24;4.50;82.10
37560;DHT22;23398;50.928;7.084;2023-01-28T06:29:50;4.50;80.90
37560;DHT22;23398;50.928;7.084;2023-01-28T06:32:15;4.60;80.60
37560;DHT22;23398;50.928;7.084;2023-01-28T06:34:41;4.70;80.40
37560;DHT22;23398;50.928;7.084;2023-01-28T06:37:06;4.70;80.20
37560;DHT22;23398;50.928;7.084;2023-01-28T06:39:32;4.70;79.90
37560;DHT22;23398;50.928;7.084;2023-01-28T06:41:58;4.80;79.80
37560;DHT22;23398;50.928;7.084;2023-01-28T06:44:24;4.80;79.30
37560;DHT22;23398;50.928;7.084;2023-01-28T06:46:49;4.80;79.00
37560;DHT22;23398;50.928;7.084;2023-01-28T06:49:15;4.90;79.00
37560;DHT22;23398;50.928;7.084;2023-01-28T06:51:40;4.90;78.90
37560;DHT22;23398;50.928;7.084;2023-01-28T06:54:06;4.90;78.40
37560;DHT22;23398;50.928;7.084;2023-01-28T06:56:32;4.90;78.10
37560;DHT22;23398;50.928;7.084;2023-01-28T06:58:57;5.00;78.00
37560;DHT22;23398;50.928;7.084;2023-01-28T07:01:23;5.00;78.00
37560;DHT22;23398;50.928;7.084;2023-01-28T07:03:49;5.00;78.00
37560;DHT22;23398;50.928;7.084;2023-01-28T07:06:15;5.00;78.00
37560;DHT22;23398;50.928;7.084;2023-01-28T07:08:41;5.00;77.70
37560;DHT22;23398;50.928;7.084;2023-01-28T07:11:07;5.10;77.60
37560;DHT22;23398;50.928;7.084;2023-01-28T07:13:33;5.10;77.50
37560;DHT22;23398;50.928;7.084;2023-01-28T07:15:59;5.10;77.50
37560;DHT22;23398;50.928;7.084;2023-01-28T07:18:25;5.10;77.30
37560;DHT22;23398;50.928;7.084;2023-01-28T07:20:51;5.20;77.20
37560;DHT22;23398;50.928;7.084;2023-01-28T07:23:17;5.20;76.40
37560;DHT22;23398;50.928;7.084;2023-01-28T07:25:42;5.20;77.00
37560;DHT22;23398;50.928;7.084;2023-01-28T07:28:08;5.20;76.70
37560;DHT22;23398;50.928;7.084;2023-01-28T07:30:35;5.20;76.10
37560;DHT22;23398;50.928;7.084;2023-01-28T07:33:01;5.20;75.90
37560;DHT22;23398;50.928;7.084;2023-01-28T07:35:26;5.30;75.70
37560;DHT22;23398;50.928;7.084;2023-01-28T07:37:59;5.20;75.30
37560;DHT22;23398;50.928;7.084;2023-01-28T07:40:26;5.30;75.10
37560;DHT22;23398;50.928;7.084;2023-01-28T07:42:53;5.30;75.10
37560;DHT22;23398;50.928;7.084;2023-01-28T07:45:20;5.30;75.10
37560;DHT22;23398;50.928;7.084;2023-01-28T07:47:53;5.30;75.00
37560;DHT22;23398;50.928;7.084;2023-01-28T07:50:19;5.30;74.70
37560;DHT22;23398;50.928;7.084;2023-01-28T07:52:44;5.40;74.80
37560;DHT22;23398;50.928;7.084;2023-01-28T07:55:11;5.40;74.70
37560;DHT22;23398;50.928;7.084;2023-01-28T07:57:57;5.40;74.40
37560;DHT22;23398;50.928;7.084;2023-01-28T08:00:25;5.50;74.00
37560;DHT22;23398;50.928;7.084;2023-01-28T08:02:58;5.50;74.30
37560;DHT22;23398;50.928;7.084;2023-01-28T08:05:35;5.60;74.70
37560;DHT22;23398;50.928;7.084;2023-01-28T08:08:03;5.60;74.80
37560;DHT22;23398;50.928;7.084;2023-01-28T08:10:29;5.70;74.90
37560;DHT22;23398;50.928;7.084;2023-01-28T08:12:56;5.70;74.70
37560;DHT22;23398;50.928;7.084;2023-01-28T08:15:23;5.70;74.40
37560;DHT22;23398;50.928;7.084;2023-01-28T08:17:48;5.80;74.60
37560;DHT22;23398;50.928;7.084;2023-01-28T08:20:14;5.80;74.70
37560;DHT22;23398;50.928;7.084;2023-01-28T08:22:40;5.90;74.70
37560;DHT22;23398;50.928;7.084;2023-01-28T08:25:06;5.90;74.40
37560;DHT22;23398;50.928;7.084;2023-01-28T08:27:32;6.00;74.20
37560;DHT22;23398;50.928;7.084;2023-01-28T08:29:57;6.00;73.70
37560;DHT22;23398;50.928;7.084;2023-01-28T08:32:23;6.00;73.10
37560;DHT22;23398;50.928;7.084;2023-01-28T08:34:48;6.00;72.70
37560;DHT22;23398;50.928;7.084;2023-01-28T08:37:14;6.00;72.40
37560;DHT22;23398;50.928;7.084;2023-01-28T08:39:40;6.10;72.20
37560;DHT22;23398;50.928;7.084;2023-01-28T08:42:06;6.10;72.00
37560;DHT22;23398;50.928;7.084;2023-01-28T08:44:32;6.10;72.00
37560;DHT22;23398;50.928;7.084;2023-01-28T08:46:58;6.10;71.80
37560;DHT22;23398;50.928;7.084;2023-01-28T08:49:23;6.10;71.40
37560;DHT22;23398;50.928;7.084;2023-01-28T08:51:49;6.20;71.60
37560;DHT22;23398;50.928;7.084;2023-01-28T08:54:14;6.20;71.60
37560;DHT22;23398;50.928;7.084;2023-01-28T08:56:40;6.20;71.20
37560;DHT22;23398;50.928;7.084;2023-01-28T08:59:09;6.20;70.70
37560;DHT22;23398;50.928;7.084;2023-01-28T09:01:35;6.30;70.50
37560;DHT22;23398;50.928;7.084;2023-01-28T09:04:00;6.30;70.50
37560;DHT22;23398;50.928;7.084;2023-01-28T09:06:26;6.30;70.40
37560;DHT22;23398;50.928;7.084;2023-01-28T09:08:56;6.40;70.20
37560;DHT22;23398;50.928;7.084;2023-01-28T09:11:21;6.40;69.70
37560;DHT22;23398;50.928;7.084;2023-01-28T09:13:47;6.50;69.70
37560;DHT22;23398;50.928;7.084;2023-01-28T09:16:12;6.50;69.50
37560;DHT22;23398;50.928;7.084;2023-01-28T09:18:38;6.50;69.50
37560;DHT22;23398;50.928;7.084;2023-01-28T09:21:05;6.60;69.40
37560;DHT22;23398;50.928;7.084;2023-01-28T09:23:34;6.60;69.10
37560;DHT22;23398;50.928;7.084;2023-01-28T09:26:00;6.60;69.00
37560;DHT22;23398;50.928;7.084;2023-01-28T09:28:26;6.60;68.80
37560;DHT22;23398;50.928;7.084;2023-01-28T09:30:51;6.70;68.70
37560;DHT22;23398;50.928;7.084;2023-01-28T09:33:17;6.70;68.40
37560;DHT22;23398;50.928;7.084;2023-01-28T09:35:42;6.70;68.10
37560;DHT22;23398;50.928;7.084;2023-01-28T09:38:08;6.70;68.00
37560;DHT22;23398;50.928;7.084;2023-01-28T09:40:40;6.70;67.80
37560;DHT22;23398;50.928;7.084;2023-01-28T09:45:47;6.70;67.60
37560;DHT22;23398;50.928;7.084;2023-01-28T09:48:16;6.70;67.70
37560;DHT22;23398;50.928;7.084;2023-01-28T09:50:45;6.70;67.60
37560;DHT22;23398;50.928;7.084;2023-01-28T09:53:28;6.70;67.60
37560;DHT22;23398;50.928;7.084;2023-01-28T09:58:21;6.70;67.00
37560;DHT22;23398;50.928;7.084;2023-01-28T10:11:51;6.70;66.40
37560;DHT22;23398;50.928;7.084;2023-01-28T10:22:36;6.60;66.20
37560;DHT22;23398;50.928;7.084;2023-01-28T10:25:14;6.60;66.40
37560;DHT22;23398;50.928;7.084;2023-01-28T10:27:42;6.60;66.10
37560;DHT22;23398;50.928;7.084;2023-01-28T10:33:36;6.60;64.90
37560;DHT22;23398;50.928;7.084;2023-01-28T10:35:40;6.60;64.80
37560;DHT22;23398;50.928;7.084;2023-01-28T10:38:11;6.70;64.90
37560;DHT22;23398;50.928;7.084;2023-01-28T10:40:40;6.80;64.90
37560;DHT22;23398;50.928;7.084;2023-01-28T10:43:06;6.80;64.80
37560;DHT22;23398;50.928;7.084;2023-01-28T10:45:41;6.80;64.60
37560;DHT22;23398;50.928;7.084;2023-01-28T10:48:23;6.90;64.20
37560;DHT22;23398;50.928;7.084;2023-01-28T10:51:00;6.80;60.40
37560;DHT22;23398;50.928;7.084;2023-01-28T10:53:53;6.80;61.50
37560;DHT22;23398;50.928;7.084;2023-01-28T10:56:26;6.90;61.80
37560;DHT22;23398;50.928;7.084;2023-01-28T10:59:05;6.90;62.70
37560;DHT22;23398;50.928;7.084;2023-01-28T11:01:39;6.90;63.00
37560;DHT22;23398;50.928;7.084;2023-01-28T11:04:12;7.00;63.00
37560;DHT22;23398;50.928;7.084;2023-01-28T11:06:39;7.00;62.60
37560;DHT22;23398;50.928;7.084;2023-01-28T11:09:23;7.00;62.80
37560;DHT22;23398;50.928;7.084;2023-01-28T11:11:48;7.00;62.50
37560;DHT22;23398;50.928;7.084;2023-01-28T11:14:22;7.00;62.70
37560;DHT22;23398;50.928;7.084;2023-01-28T11:16:49;7.00;61.90
37560;DHT22;23398;50.928;7.084;2023-01-28T11:19:17;7.00;61.90
37560;DHT22;23398;50.928;7.084;2023-01-28T11:21:51;7.00;62.00
37560;DHT22;23398;50.928;7.084;2023-01-28T11:24:22;7.00;61.70
37560;DHT22;23398;50.928;7.084;2023-01-28T11:26:52;6.70;61.50
37560;DHT22;23398;50.928;7.084;2023-01-28T11:29:30;6.90;61.90
37560;DHT22;23398;50.928;7.084;2023-01-28T11:31:58;6.90;61.80
37560;DHT22;23398;50.928;7.084;2023-01-28T11:34:29;6.90;62.10
37560;DHT22;23398;50.928;7.084;2023-01-28T11:37:03;6.90;62.80
37560;DHT22;23398;50.928;7.084;2023-01-28T11:39:30;6.80;62.10
37560;DHT22;23398;50.928;7.084;2023-01-28T11:42:14;6.90;62.40
37560;DHT22;23398;50.928;7.084;2023-01-28T11:44:40;6.80;62.10
37560;DHT22;23398;50.928;7.084;2023-01-28T11:47:15;6.90;63.00
37560;DHT22;23398;50.928;7.084;2023-01-28T11:55:27;7.00;62.30
37560;DHT22;23398;50.928;7.084;2023-01-28T12:26:14;7.00;62.30
37560;DHT22;23398;50.928;7.084;2023-01-28T12:31:45;6.90;62.00
37560;DHT22;23398;50.928;7.084;2023-01-28T12:37:44;6.90;62.30
37560;DHT22;23398;50.928;7.084;2023-01-28T12:46:03;6.90;61.70
37560;DHT22;23398;50.928;7.084;2023-01-28T12:48:38;7.00;61.90
37560;DHT22;23398;50.928;7.084;2023-01-28T12:51:14;6.90;61.70
37560;DHT22;23398;50.928;7.084;2023-01-28T12:59:31;6.90;61.70
37560;DHT22;23398;50.928;7.084;2023-01-28T13:01:50;7.00;61.40
37560;DHT22;23398;50.928;7.084;2023-01-28T13:06:51;6.90;61.10
37560;DHT22;23398;50.928;7.084;2023-01-28T13:09:21;7.00;61.10
37560;DHT22;23398;50.928;7.084;2023-01-28T13:11:50;7.00;61.10
37560;DHT22;23398;50.928;7.084;2023-01-28T13:14:18;7.00;61.00
37560;DHT22;23398;50.928;7.084;2023-01-28T13:16:46;7.00;61.30
37560;DHT22;23398;50.928;7.084;2023-01-28T13:21:43;7.10;61.20
37560;DHT22;23398;50.928;7.084;2023-01-28T13:29:18;7.20;60.20
37560;DHT22;23398;50.928;7.084;2023-01-28T13:31:49;7.40;60.20
37560;DHT22;23398;50.928;7.084;2023-01-28T13:34:30;7.40;60.20
37560;DHT22;23398;50.928;7.084;2023-01-28T13:39:49;7.60;60.00
37560;DHT22;23398;50.928;7.084;2023-01-28T13:42:29;7.70;59.90
37560;DHT22;23398;50.928;7.084;2023-01-28T13:44:55;7.80;59.50
37560;DHT22;23398;50.928;7.084;2023-01-28T13:49:50;7.90;59.20
37560;DHT22;23398;50.928;7.084;2023-01-28T13:52:23;8.00;58.80
37560;DHT22;23398;50.928;7.084;2023-01-28T13:54:55;8.00;58.50
37560;DHT22;23398;50.928;7.084;2023-01-28T14:06:10;7.80;58.50
37560;DHT22;23398;50.928;7.084;2023-01-28T14:19:27;7.40;58.40
37560;DHT22;23398;50.928;7.084;2023-01-28T14:21:54;7.40;58.40
37560;DHT22;23398;50.928;7.084;2023-01-28T14:24:20;7.30;58.60
37560;DHT22;23398;50.928;7.084;2023-01-28T14:26:54;7.30;58.60
37560;DHT22;23398;50.928;7.084;2023-01-28T14:29:34;7.20;58.20
37560;DHT22;23398;50.928;7.084;2023-01-28T14:32:25;7.10;58.20
37560;DHT22;23398;50.928;7.084;2023-01-28T14:34:52;7.00;58.50
37560;DHT22;23398;50.928;7.084;2023-01-28T14:37:19;6.90;58.40
37560;DHT22;23398;50.928;7.084;2023-01-28T14:39:57;6.80;58.30
37560;DHT22;23398;50.928;7.084;2023-01-28T14:42:26;6.70;58.20
37560;DHT22;23398;50.928;7.084;2023-01-28T14:47:56;6.60;58.70
37560;DHT22;23398;50.928;7.084;2023-01-28T14:53:31;6.50;59.00
37560;DHT22;23398;50.928;7.084;2023-01-28T14:56:12;6.40;59.00
37560;DHT22;23398;50.928;7.084;2023-01-28T14:58:52;6.40;59.20
37560;DHT22;23398;50.928;7.084;2023-01-28T15:01:25;6.40;59.20
37560;DHT22;23398;50.928;7.084;2023-01-28T15:03:51;6.30;59.00
37560;DHT22;23398;50.928;7.084;2023-01-28T15:06:52;6.30;59.60
37560;DHT22;23398;50.928;7.084;2023-01-28T15:09:12;6.30;58.90
37560;DHT22;23398;50.928;7.084;2023-01-28T15:11:39;6.20;59.00
37560;DHT22;23398;50.928;7.084;2023-01-28T15:14:14;6.20;59.00
37560;DHT22;23398;50.928;7.084;2023-01-28T15:16:47;6.10;58.90
37560;DHT22;23398;50.928;7.084;2023-01-28T15:19:13;6.10;58.90
37560;DHT22;23398;50.928;7.084;2023-01-28T15:21:39;6.00;58.90
37560;DHT22;23398;50.928;7.084;2023-01-28T15:24:12;5.90;58.70
37560;DHT22;23398;50.928;7.084;2023-01-28T15:26:38;5.90;58.70
37560;DHT22;23398;50.928;7.084;2023-01-28T15:29:05;5.80;58.80
37560;DHT22;23398;50.928;7.084;2023-01-28T15:31:35;5.80;58.80
37560;DHT22;23398;50.928;7.084;2023-01-28T15:34:17;5.70;58.70
37560;DHT22;23398;50.928;7.084;2023-01-28T15:36:43;5.60;58.70
37560;DHT22;23398;50.928;7.084;2023-01-28T15:39:14;5.60;58.80
37560;DHT22;23398;50.928;7.084;2023-01-28T15:41:42;5.50;58.80
37560;DHT22;23398;50.928;7.084;2023-01-28T15:44:17;5.40;59.00
37560;DHT22;23398;50.928;7.084;2023-01-28T15:46:43;5.30;59.10
37560;DHT22;23398;50.928;7.084;2023-01-28T15:49:16;5.30;59.20
37560;DHT22;23398;50.928;7.084;2023-01-28T15:51:47;5.10;59.20
37560;DHT22;23398;50.928;7.084;2023-01-28T15:54:15;5.10;59.20
37560;DHT22;23398;50.928;7.084;2023-01-28T15:56:41;5.00;59.20
37560;DHT22;23398;50.928;7.084;2023-01-28T16:01:41;4.80;59.40
37560;DHT22;23398;50.928;7.084;2023-01-28T16:04:25;4.70;59.40
37560;DHT22;23398;50.928;7.084;2023-01-28T16:06:52;4.60;59.60
37560;DHT22;23398;50.928;7.084;2023-01-28T16:09:29;4.50;59.70
37560;DHT22;23398;50.928;7.084;2023-01-28T16:12:11;4.40;59.90
37560;DHT22;23398;50.928;7.084;2023-01-28T16:14:48;4.30;60.30
37560;DHT22;23398;50.928;7.084;2023-01-28T16:17:21;4.20;60.90
37560;DHT22;23398;50.928;7.084;2023-01-28T16:20:18;4.10;62.20
37560;DHT22;23398;50.928;7.084;2023-01-28T16:22:40;4.00;61.90
37560;DHT22;23398;50.928;7.084;2023-01-28T16:27:45;3.80;62.70
37560;DHT22;23398;50.928;7.084;2023-01-28T16:30:11;3.70;62.70
37560;DHT22;23398;50.928;7.084;2023-01-28T16:32:37;3.60;63.00
37560;DHT22;23398;50.928;7.084;2023-01-28T16:37:36;3.50;64.60
37560;DHT22;23398;50.928;7.084;2023-01-28T16:40:02;3.40;64.00
37560;DHT22;23398;50.928;7.084;2023-01-28T16:42:30;3.40;64.40
37560;DHT22;23398;50.928;7.084;2023-01-28T16:44:56;3.30;64.40
37560;DHT22;23398;50.928;7.084;2023-01-28T16:47:22;3.30;64.30
37560;DHT22;23398;50.928;7.084;2023-01-28T16:49:47;3.20;64.10
37560;DHT22;23398;50.928;7.084;2023-01-28T16:52:13;3.10;63.90
37560;DHT22;23398;50.928;7.084;2023-01-28T16:54:41;3.10;63.90
37560;DHT22;23398;50.928;7.084;2023-01-28T16:57:13;3.00;63.80
37560;DHT22;23398;50.928;7.084;2023-01-28T16:59:40;2.90;63.90
37560;DHT22;23398;50.928;7.084;2023-01-28T17:02:07;2.90;64.10
37560;DHT22;23398;50.928;7.084;2023-01-28T17:04:33;2.80;65.10
37560;DHT22;23398;50.928;7.084;2023-01-28T17:06:58;2.80;64.70
37560;DHT22;23398;50.928;7.084;2023-01-28T17:09:26;2.70;65.10
37560;DHT22;23398;50.928;7.084;2023-01-28T17:11:52;2.70;65.30
37560;DHT22;23398;50.928;7.084;2023-01-28T17:14:17;2.70;65.40
37560;DHT22;23398;50.928;7.084;2023-01-28T17:16:43;2.60;65.30
37560;DHT22;23398;50.928;7.084;2023-01-28T17:19:08;2.60;65.40
37560;DHT22;23398;50.928;7.084;2023-01-28T17:21:34;2.60;65.50
37560;DHT22;23398;50.928;7.084;2023-01-28T17:23:59;2.60;65.40
37560;DHT22;23398;50.928;7.084;2023-01-28T17:26:26;2.60;65.20
37560;DHT22;23398;50.928;7.084;2023-01-28T17:28:53;2.60;65.10
37560;DHT22;23398;50.928;7.084;2023-01-28T17:31:20;2.50;65.00
37560;DHT22;23398;50.928;7.084;2023-01-28T17:33:45;2.50;65.00
37560;DHT22;23398;50.928;7.084;2023-01-28T17:36:11;2.40;64.60
37560;DHT22;23398;50.928;7.084;2023-01-28T17:38:37;2.40;65.20
37560;DHT22;23398;50.928;7.084;2023-01-28T17:41:07;2.30;65.20
37560;DHT22;23398;50.928;7.084;2023-01-28T17:43:33;2.30;65.30
37560;DHT22;23398;50.928;7.084;2023-01-28T17:45:59;2.20;65.30
37560;DHT22;23398;50.928;7.084;2023-01-28T17:48:25;2.20;65.40
37560;DHT22;23398;50.928;7.084;2023-01-28T17:50:56;2.10;65.50
37560;DHT22;23398;50.928;7.084;2023-01-28T17:53:21;2.10;65.90
37560;DHT22;23398;50.928;7.084;2023-01-28T17:55:47;2.00;65.90
37560;DHT22;23398;50.928;7.084;2023-01-28T17:58:13;1.90;65.90
37560;DHT22;23398;50.928;7.084;2023-01-28T18:00:38;1.90;66.00
37560;DHT22;23398;50.928;7.084;2023-01-28T18:03:04;1.80;66.00
37560;DHT22;23398;50.928;7.084;2023-01-28T18:05:29;1.80;66.10
37560;DHT22;23398;50.928;7.084;2023-01-28T18:07:55;1.80;66.20
37560;DHT22;23398;50.928;7.084;2023-01-28T18:10:20;1.70;67.10
37560;DHT22;23398;50.928;7.084;2023-01-28T18:12:46;1.60;66.70
37560;DHT22;23398;50.928;7.084;2023-01-28T18:15:12;1.60;67.40
37560;DHT22;23398;50.928;7.084;2023-01-28T18:17:37;1.60;67.70
37560;DHT22;23398;50.928;7.084;2023-01-28T18:20:04;1.50;67.90
37560;DHT22;23398;50.928;7.084;2023-01-28T18:22:31;1.50;68.30
37560;DHT22;23398;50.928;7.084;2023-01-28T18:24:57;1.50;68.90
37560;DHT22;23398;50.928;7.084;2023-01-28T18:27:22;1.50;69.00
37560;DHT22;23398;50.928;7.084;2023-01-28T18:29:48;1.50;69.00
37560;DHT22;23398;50.928;7.084;2023-01-28T18:32:14;1.50;69.00
37560;DHT22;23398;50.928;7.084;2023-01-28T18:34:39;1.50;68.80